Tiempo atmosférico en la estación meteorológica de Arroyo Del Ojanco, Jaén (580 m.)



Fecha
DESCASC
Temp. máxima en grados centígrados (hora)
DESCASC
Temp. mínima en grados centígrados (hora)
DESCASC
Temp. media en grados centígrados
DESCASC
Racha de viento máxima en m/sg (hora)
DESCASC
Velocidad máxima media en intervalos de 10 minutos(hora)
DESCASC
Precipitaciones diarias en mm
DESCASC
Precipitaciones de 00:00 a 06:00 en mm
DESCASC
Precipitaciones de 06:00 a 12:00 en mm
DESCASC
Precipitaciones de 12:00 a 18:00 en mm
DESCASC
Precipitaciones de 18:00 a 24:00 en mm
DESCASC
20-08-2019 34.5 (17:20) 21.3 (00:00) 27.9 -- (--) -- (--) -- 0 -- 0 0
10-08-2019 35.6 (18:10) 22.3 (00:00) 28.9 -- (--) -- (--) 0 0 0 0 0
24-08-2019 35.5 (18:10) 19.2 (00:00) 27.4 -- (--) -- (--) 0 0 0 0 0
23-08-2019 35.1 (18:50) 19.7 (00:00) 27.4 -- (--) -- (--) 0 0 0 0 0
22-08-2019 34 (17:20) 19.2 (00:00) 26.6 -- (--) -- (--) 0 0 0 0 0
21-08-2019 32.8 (16:20) 22.1 (00:00) 27.4 -- (--) -- (--) 0 0 0 0 0
19-08-2019 36 (16:10) 20.6 (00:00) 28.3 -- (--) -- (--) 0 0 0 0 0
18-08-2019 37.3 (17:40) 22.9 (00:00) 30.1 -- (--) -- (--) 0 0 0 0 0
17-08-2019 38.6 (17:50) 22.4 (00:00) 30.5 -- (--) -- (--) 0 0 0 0 0
16-08-2019 37.4 (17:50) 23.1 (00:00) 30.3 -- (--) -- (--) 0 0 0 0 0
15-08-2019 36.7 (17:20) 19.3 (00:00) 28 -- (--) -- (--) 0 0 0 0 0
14-08-2019 35.1 (18:30) 19 (00:00) 27 -- (--) -- (--) 0 0 0 0 0
13-08-2019 33 (18:10) 19.4 (00:00) 26.2 -- (--) -- (--) 0 0 0 0 0
12-08-2019 32.6 (18:00) 16.6 (00:00) 24.6 -- (--) -- (--) 0 0 0 0 0
11-08-2019 32.6 (18:30) 21.4 (00:00) 27 -- (--) -- (--) 0 0 0 0 0
26-07-2019 31.8 (16:50) 22 (00:00) 26.9 11.11 (17:00) 6.39 (17:40) 0 0 0 0 0
09-08-2019 35.6 (17:40) 22.5 (00:00) 29 -- (--) -- (--) 0 0 0 0 0
08-08-2019 37 (16:40) 20.9 (00:00) 28.9 -- (--) -- (--) 0 0 0 0 0
07-08-2019 34.2 (16:30) 20.9 (00:00) 27.6 -- (--) -- (--) 0 0 0 0 0
06-08-2019 37.5 (16:50) 21.7 (00:00) 29.6 -- (--) -- (--) 0 0 0 0 0
05-08-2019 38.2 (17:20) 20.3 (00:00) 29.3 -- (--) -- (--) 0 0 0 0 0
04-08-2019 37.2 (17:30) 22.7 (00:00) 30 8.33 (17:10) 6.11 (00:10) 0 0 0 0 0
03-08-2019 37.8 (17:40) 21.7 (00:00) 29.8 -- (--) 10.83 (22:50) 0 0 0 0 0
02-08-2019 37.9 (17:20) 21.7 (00:00) 29.8 13.61 (13:50) 4.72 (18:00) 0 0 0 0 0
01-08-2019 35.6 (18:10) 22.5 (00:00) 29 18.33 (20:50) 4.44 (20:00) 0 0 0 0 0
31-07-2019 36.1 (17:40) 22.8 (00:00) 29.4 8.06 (18:00) 5 (19:00) 0 0 0 0 0
30-07-2019 36.7 (18:30) 18.8 (00:00) 27.8 9.72 (15:40) 4.17 (16:50) 0 0 0 0 0
29-07-2019 33.5 (17:20) 20.7 (00:00) 27.1 7.5 (17:50) 4.72 (19:40) 0 0 0 0 0
28-07-2019 32.4 (18:40) 20.1 (00:00) 26.3 8.06 (17:50) 3.89 (14:50) 0 0 0 0 0
27-07-2019 28.4 (17:50) 19.1 (00:00) 23.8 11.67 (17:50) 6.94 (12:10) 0 0 0 0 0

Gráficas

Temp. máximas Temp. mínimas Temp. medias Precipitaciones Rachas de viento máximas Velocidades máximas media en intervalos de 10 minutos

Datos horarios

Fecha y hora oficial Temperatura (ºC) Velocidad del viento (km/h) Dirección del viento Racha (km/h) Dirección de racha Precipitación (mm) Presión (hPa) Tendencia (hPa) Humedad (%)
2019-08-24 23:00:00 28.8 10 Sudeste 20 Este 0 945.2 1.3 99
2019-08-24 22:00:00 29.9 12 Este 23 Este 0 944.6 0.7 99
2019-08-24 21:00:00 31.2 12 Este 27 Nordeste 0 943.8 -0.2 99
2019-08-24 20:00:00 33.3 15 Nordeste 31 Nordeste 0 943.9 -0.6 99
2019-08-24 19:00:00 34.6 13 Nordeste 30 Nordeste 0 943.9 -1.1 99
2019-08-24 18:00:00 35 6 Nordeste 22 Nordeste 0 944 -1.4 99
2019-08-24 17:00:00 34.7 11 Nordeste 26 Nordeste 0 944.5 -1.3 99
2019-08-24 16:00:00 34.4 11 Nordeste 29 Nordeste 0 945 -1.4 99
2019-08-24 15:00:00 34.4 9 Norte 28 Nordeste 0 945.4 -1.4 99
2019-08-24 14:00:00 32.6 3 Nordeste 17 Noroeste 0 945.8 -1.2 99
2019-08-24 13:00:00 30.4 5 Norte 13 Noroeste 0 946.4 -0.3 99
2019-08-24 12:00:00 28 3 Norte 10 Norte 0 946.8 0.6 99
2019-08-24 11:00:00 25.6 0 Calma 8 Oeste 0 947 1.2 99
2019-08-24 10:00:00 23.4 3 Norte 12 Nordeste 0 946.7 0.9 99
2019-08-24 09:00:00 21.3 0 Calma 6 Nordeste 0 946.2 0.4 99
2019-08-24 08:00:00 19.3 0 Calma -- -- 0 945.8 0 99
2019-08-24 07:00:00 20.3 0 Calma -- -- 0 945.8 -0.1 99
2019-08-24 06:00:00 21.1 0 Calma -- -- 0 945.8 -0.1 99
2019-08-24 05:00:00 21.6 0 Calma 11 Sur 0 945.8 -0.3 99
2019-08-24 04:00:00 23.2 6 Sur 13 Sudoeste 0 945.9 0.1 99
2019-08-24 03:00:00 24 7 Sur 15 Sudoeste 0 945.9 0.1 99
2019-08-24 02:00:00 24.3 0 Calma 12 Este 0 946.1 0.9 99
2019-08-24 01:00:00 26 5 Nordeste 14 Este 0 945.8 0.9 99
2019-08-24 00:00:00 26.1 8 Norte 26 Sudeste 0 945.8 1.5 99
2019-08-23 23:00:00 27.9 18 Sudeste 35 Sudeste 0 945.2 1 99
2019-08-23 22:00:00 28.7 23 Sudeste 36 Sudeste 0 944.9 0.5 99
2019-08-23 21:00:00 30.9 9 Este 20 Nordeste 0 944.3 -0.3 99
2019-08-23 20:00:00 33.9 4 Oeste 16 Noroeste 0 944.2 -0.8 99
2019-08-23 19:00:00 34.6 6 Norte 17 Sudoeste 0 944.4 -0.6 99
2019-08-23 18:00:00 34.4 2 Norte 21 Noroeste 0 944.6 -1.4 99
2019-08-23 17:00:00 34.3 7 Oeste 21 Sudoeste 0 945 -1.5 99
2019-08-23 16:00:00 33.3 0 Calma 17 Oeste 0 945 -2 99
2019-08-23 15:00:00 32.1 8 Oeste 15 Noroeste 0 946 -1.2 99
2019-08-23 14:00:00 31.1 7 Oeste 15 Norte 0 946.5 -0.8 99
2019-08-23 13:00:00 29.1 4 Norte 14 Norte 0 947 -0.1 99
2019-08-23 12:00:00 27.4 5 Oeste 14 Oeste 0 947.2 0.8 99
2019-08-23 11:00:00 25.1 5 Sudoeste 11 Sudoeste 0 947.3 1.2 99
2019-08-23 10:00:00 23.7 4 Sudoeste 8 Sudoeste 0 947.1 1.4 99
2019-08-23 09:00:00 22 0 Calma 4 Sudeste 0 946.4 0.7 99
2019-08-23 08:00:00 20 0 Calma 8 Sudeste 0 946.1 0.1 99
2019-08-23 07:00:00 19.9 0 Calma 4 Nordeste 0 945.7 -0.5 99
2019-08-23 06:00:00 20.8 0 Calma 6 Sudeste 0 945.7 -0.6 99
2019-08-23 05:00:00 22.2 0 Calma 8 Sudeste 0 946 -0.4 99
2019-08-23 04:00:00 23.6 2 Sur 11 Nordeste 0 946.2 -0.1 99
2019-08-23 03:00:00 24.8 0 Calma 17 Nordeste 0 946.3 0 99
2019-08-23 02:00:00 25.8 9 Nordeste 22 Nordeste 0 946.4 0.2 99
2019-08-23 01:00:00 26.3 5 Este 22 Este 0 946.3 0.8 99
2019-08-23 00:00:00 27 8 Este 24 Sudeste 0 946.3 1.3 99
2019-08-22 23:00:00 27.8 0 Calma 17 Este 0 946.2 1.6 99
2019-08-22 22:00:00 28.9 5 Este 16 Nordeste 0 945.5 1.2 99
2019-08-22 21:00:00 30.2 13 Nordeste 27 Este 0 945 0.5 99
2019-08-22 20:00:00 31.7 18 Nordeste 33 Nordeste 0 944.6 0.2 99
2019-08-22 19:00:00 32.8 19 Nordeste 32 Nordeste 0 944.3 -1.2 99
2019-08-22 18:00:00 33.4 16 Nordeste 32 Nordeste 0 944.5 -1.3 99
2019-08-22 17:00:00 33.3 18 Nordeste 30 Nordeste 0 944.4 -2 99
2019-08-22 16:00:00 33.3 13 Norte 28 Nordeste 0 945.5 -1.3 99
2019-08-22 15:00:00 32.8 17 Nordeste 29 Nordeste 0 945.8 -1.3 99
2019-08-22 14:00:00 31.5 11 Norte 25 Nordeste 0 946.4 -0.9 99
2019-08-22 13:00:00 30.5 14 Nordeste 28 Nordeste 0 946.8 -0.1 99
2019-08-22 12:00:00 28.8 14 Nordeste 24 Nordeste 0 947.1 0.6 99
2019-08-22 11:00:00 26 10 Nordeste 17 Norte 0 947.3 1 99
2019-08-22 10:00:00 23.2 9 Norte 17 Nordeste 0 946.9 0.5 99
2019-08-22 09:00:00 20.9 6 Nordeste 12 Nordeste 0 946.5 0.2 99
2019-08-22 08:00:00 19.4 0 Calma -- -- 0 946.3 0.1 99
2019-08-22 07:00:00 20.4 0 Calma 8 Sudeste 0 946.4 0.6 99
2019-08-22 06:00:00 21.1 2 Sudeste 9 Sudeste 0 946.3 0 99
2019-08-22 05:00:00 21.1 0 Calma 14 Sudoeste 0 946.2 -0.2 99
2019-08-22 04:00:00 22 4 Sudoeste 12 Sudoeste 0 945.8 -0.9 99
2019-08-22 03:00:00 22.8 2 Nordeste 17 Nordeste 0 946.3 0.1 99
2019-08-22 02:00:00 23.4 6 Nordeste 17 Nordeste 0 946.4 0.3 99
2019-08-22 01:00:00 24.4 10 Nordeste 17 Nordeste 0 946.7 1.1 99
2019-08-22 00:00:00 24.8 8 Nordeste 26 Nordeste 0 946.2 1 99
2019-08-21 23:00:00 25.2 8 Nordeste 19 Nordeste 0 946.1 1.3 99
2019-08-21 22:00:00 26.6 0 Calma 27 Sudeste 0 945.6 1.3 99
2019-08-21 21:00:00 26.9 14 Sudeste 30 Sudeste 0 945.2 0.4 99
2019-08-21 20:00:00 27.9 3 Este 33 Nordeste 0 944.8 0.3 99
2019-08-21 19:00:00 27.7 23 Nordeste 39 Nordeste 0 944.3 0.2 99
2019-08-21 18:00:00 26.8 20 Nordeste 44 Nordeste 0 944.8 0.2 99
2019-08-21 17:00:00 29.9 21 Nordeste 33 Nordeste 0 944.5 -0.9 99
2019-08-21 16:00:00 32 3 Sur 16 Oeste 0 944.1 -1.9 99
2019-08-21 15:00:00 30.4 4 Nordeste 21 Nordeste 0 944.6 -1.7 99
2019-08-21 14:00:00 29.2 7 Nordeste 26 Nordeste 0 945.4 -0.5 99
2019-08-21 13:00:00 28.1 13 Nordeste 24 Nordeste 0 946 -0.1 99
2019-08-21 12:00:00 27.4 13 Nordeste 24 Norte 0 946.3 0.6 99
2019-08-21 11:00:00 26.8 0 Calma 18 Nordeste 0 945.9 0.4 99
2019-08-21 10:00:00 25.7 8 Nordeste 13 Norte 0 946.1 0.9 99
2019-08-21 09:00:00 24.1 3 Nordeste 12 Este 0 945.7 0.6 99
2019-08-21 08:00:00 22.1 0 Calma 5 Este 0 945.5 0.3 99
2019-08-21 07:00:00 22.6 0 Calma 8 Sudeste 0 945.2 -0.3 99
2019-08-21 06:00:00 23.1 0 Calma 11 Nordeste 0 945.1 -0.3 99
2019-08-21 05:00:00 23.8 9 Nordeste 14 Este 0 945.2 -0.1 99
2019-08-21 04:00:00 24.2 3 Este 22 Norte 0 945.5 0.2 99
2019-08-21 03:00:00 24.7 6 Nordeste 22 Nordeste 0 945.4 0.4 99
2019-08-21 02:00:00 26.1 13 Sudeste 33 Sudeste 0 945.3 1 99
2019-08-21 01:00:00 26.2 17 Sudeste 28 Sudeste 0 945.3 1.5 99
2019-08-21 00:00:00 25.5 6 Nordeste 27 Sudeste 0 945 1.6 99
2019-08-20 23:00:00 27 18 Sudeste 39 Este 0 944.3 1.2 99
2019-08-20 22:00:00 27.4 23 Sudeste 40 Sudeste 0 943.8 0.3 99
2019-08-20 21:00:00 31.4 10 Sudeste 13 Sudeste 0 943.4 -0.1 99
2019-08-20 20:00:00 32.5 5 Sur 13 Sudoeste 0 943.1 -0.5 99
2019-08-20 19:00:00 33.4 8 Sudoeste 17 Sudoeste 0 943.5 0.1 99
2019-08-20 18:00:00 33.6 8 Oeste 22 Sudoeste 0 943.5 -0.9 99
2019-08-20 17:00:00 33.6 9 Oeste 23 Oeste 0 943.6 -1.2 99
2019-08-20 16:00:00 32.8 11 Oeste 27 Sudoeste 0 943.4 -1.8 99
2019-08-20 15:00:00 31.6 10 Oeste 18 Noroeste 0 944.4 -0.9 99
2019-08-20 14:00:00 30.5 7 Noroeste 16 Oeste 0 944.8 -0.1 99
2019-08-20 13:00:00 28.2 7 Oeste 14 Oeste 0 945.2 1.2 99
2019-08-20 12:00:00 26.4 7 Oeste 17 Oeste 0 945.3 1.9 99
2019-08-20 11:00:00 25.9 5 Sudoeste 13 Sudoeste 0 944.9 1.8 99
2019-08-20 10:00:00 24.7 0 Calma 6 Norte 0 944 1 99
2019-08-20 09:00:00 23 0 Calma 12 Sur 0 943.4 0.6 99
2019-08-20 08:00:00 21.5 4 Sur -- -- -- 943.1 0.4 99
2019-08-20 07:00:00 22.4 6 Sur 10 Sudeste 0 943 -0.2 99
2019-08-20 06:00:00 22.9 3 Sudoeste 12 Sudoeste 0 942.8 -0.5 99
2019-08-20 05:00:00 24.1 9 Sur 16 Sur 0 942.7 -0.8 99
2019-08-20 04:00:00 24.9 7 Sur 108 Sur 0 943.2 -0.2 99
2019-08-20 03:00:00 26.1 0 Calma 18 Sur 0 943.3 -0.1 99
2019-08-20 02:00:00 27.1 11 Sudoeste 19 Sudoeste 0 943.5 0.2 99
2019-08-20 01:00:00 27.8 12 Sudoeste 39 Sur 0 943.4 0.8 99
2019-08-20 00:00:00 28.3 8 Sur 18 Sur 0 943.4 1.2 99
2019-08-19 23:00:00 29.8 13 Sur 22 Sur 0 943.3 1.4 99
2019-08-19 22:00:00 30.3 13 Sur 22 Sudoeste 0 942.6 0.6 99
2019-08-19 21:00:00 31.9 13 Sudoeste 24 Sudoeste 0 942.2 0.1 99
2019-08-19 20:00:00 33.9 15 Oeste 28 Sudoeste 0 941.9 -0.4 99
2019-08-19 19:00:00 34.9 18 Oeste 33 Oeste 0 942 -0.7 99
2019-08-19 18:00:00 35.7 14 Oeste 32 Oeste 0 942.1 -1.1 99
2019-08-19 17:00:00 35.4 13 Oeste 35 Sudoeste 0 942.3 -1 99
2019-08-19 16:00:00 35.2 17 Sudoeste 28 Oeste 0 942.7 -1.2 99
2019-08-19 15:00:00 33.5 14 Oeste 28 Sudoeste 0 943.2 -1 99
2019-08-19 14:00:00 32.4 10 Sudoeste 23 Sudoeste 0 943.3 -1 99
2019-08-19 13:00:00 30.1 10 Oeste 20 Oeste 0 943.9 -0.1 99
2019-08-19 12:00:00 27.9 6 Oeste 14 Oeste 0 944.2 0.7 99
2019-08-19 11:00:00 26.2 4 Sudoeste 10 Sudoeste 0 944.3 1.3 99
2019-08-19 10:00:00 24.7 0 Calma 7 Norte 0 944 1 99
2019-08-19 09:00:00 22.7 0 Calma 0 Calma 0 943.5 0.4 99
2019-08-19 08:00:00 20.7 0 Calma 6 Sur 0 943 -0.3 99
2019-08-19 07:00:00 21.6 0 Calma 13 Sur 0 943 -0.6 99
2019-08-19 06:00:00 23.2 5 Sur 14 Sur 0 943.1 -0.6 99
2019-08-19 05:00:00 24.8 11 Sur 17 Sur 0 943.3 -0.8 99
2019-08-19 04:00:00 25.3 10 Sur 15 Sudoeste 0 943.6 -0.5 99
2019-08-19 03:00:00 26.8 9 Sur 18 Sur 0 943.7 0.1 99
2019-08-19 02:00:00 27.4 6 Sudoeste 16 Sudoeste 0 944.1 0.7 99
2019-08-19 01:00:00 28.8 10 Sudoeste 24 Sur 0 944.1 1.7 99
2019-08-19 00:00:00 29.8 14 Sur 19 Sur 0 943.6 2.1 99
2019-08-18 23:00:00 30.5 10 Sudoeste 18 Sudoeste 0 943.4 2.1 99
2019-08-18 22:00:00 31.4 12 Sur 24 Sudoeste 0 942.4 1.1 99
2019-08-18 21:00:00 32.9 14 Sudoeste 22 Oeste 0 941.5 0.2 99
2019-08-18 20:00:00 35.3 13 Oeste 27 Oeste 0 941.3 -0.4 99
2019-08-18 19:00:00 36.3 16 Oeste 30 Sudoeste 0 941.3 -0.7 99
2019-08-18 18:00:00 36.7 14 Oeste 29 Oeste 0 941.3 -1.2 99
2019-08-18 17:00:00 36.7 15 Oeste 30 Oeste 0 941.7 -1.2 99
2019-08-18 16:00:00 36.2 15 Oeste 30 Sudoeste 0 942 -1.5 99
2019-08-18 15:00:00 35.4 13 Oeste -- -- 0 942.5 -1.1 99
2019-08-18 14:00:00 34.8 11 Sudoeste 23 Oeste 0 942.9 -0.6 99
2019-08-18 13:00:00 33.2 8 Oeste 17 Oeste 0 943.5 0.4 99
2019-08-18 12:00:00 31.5 4 Sudoeste 13 Oeste 0 943.6 1.1 99
2019-08-18 11:00:00 29.5 3 Noroeste 9 Noroeste 0 943.5 1 99
2019-08-18 10:00:00 27.3 4 Norte 7 Norte 0 943.1 1 99
2019-08-18 09:00:00 25 0 Calma 6 Norte 0 942.5 0.2 99
2019-08-18 08:00:00 25.3 7 Sur 15 Sur 0 942.5 -0.1 99
2019-08-18 07:00:00 25.9 11 Sudeste 15 Sur 0 942.1 -0.9 99
2019-08-18 06:00:00 26.7 12 Sur 19 Sur 0 942.3 -1 99
2019-08-18 05:00:00 27.7 10 Sur 17 Sudoeste 0 942.6 -0.7 99
2019-08-18 04:00:00 27.8 8 Sudoeste 23 Sudoeste 0 943 0.2 99
2019-08-18 03:00:00 27.9 12 Sudoeste 17 Sur 0 943.3 0.7 99
2019-08-18 02:00:00 28.6 3 Sur 8 Sur 0 943.3 0.9 99
2019-08-18 01:00:00 28.8 0 Calma 5 Nordeste 0 942.8 0.8 99
2019-08-18 00:00:00 29.7 5 Nordeste 17 Sur 0 942.6 0.9 99
2019-08-17 23:00:00 32.7 11 Sur 19 Sur 0 942.4 1 99
2019-08-17 22:00:00 33.6 11 Sur 17 Sur 0 942 0.2 99
2019-08-17 21:00:00 34.9 7 Sudoeste 18 Oeste 0 941.7 -0.6 99
2019-08-17 20:00:00 37 10 Oeste 23 Oeste 0 941.4 -1.2 99
2019-08-17 19:00:00 37.9 12 Oeste 28 Oeste 0 941.8 -1.1 99
2019-08-17 18:00:00 38.3 8 Sudoeste 26 Sudoeste 0 942.3 -1.6 99
2019-08-17 17:00:00 38.2 13 Sudoeste 31 Oeste 0 942.6 -2 99
2019-08-17 16:00:00 37.1 10 Noroeste 27 Oeste 0 942.9 -2.3 99
2019-08-17 15:00:00 36.4 11 Oeste 23 Oeste 0 943.9 -1.9 99
2019-08-17 14:00:00 35.2 5 Oeste 20 Oeste 0 944.6 -1.3 99
2019-08-17 13:00:00 33 6 Oeste 14 Oeste 0 945.2 -0.6 99
2019-08-17 12:00:00 30.8 5 Oeste 13 Oeste 0 945.8 0.3 99
2019-08-17 11:00:00 29.3 7 Noroeste 12 Oeste 0 945.9 0.7 99
2019-08-17 10:00:00 27.4 0 Calma 5 Norte 0 945.8 0.5 99
2019-08-17 09:00:00 24.5 0 Calma 0 Calma 0 945.5 0.3 99
2019-08-17 08:00:00 22.5 0 Calma 10 Sudeste 0 945.2 0.1 99
2019-08-17 07:00:00 24 0 Calma 6 Nordeste 0 945.3 0.2 99
2019-08-17 06:00:00 24.9 3 Nordeste 14 Sudeste 0 945.2 -0.3 99
2019-08-17 05:00:00 26.9 8 Sur 14 Sudoeste 0 945.1 -0.6 99
2019-08-17 04:00:00 27 10 Sur 14 Sur 0 945.1 -0.4 99
2019-08-17 03:00:00 28.1 2 Oeste 22 Sur 0 945.5 0.3 99
2019-08-17 02:00:00 28.5 3 Sudoeste 10 Sur 0 945.7 0.7 99
2019-08-17 01:00:00 29.7 4 Sudoeste 19 Sur 0 945.5 1.1 99
2019-08-17 00:00:00 31.3 10 Sur 17 Sur 0 945.2 1.1 99
2019-08-16 23:00:00 31.9 10 Sur 15 Sur 0 945 1.2 99
2019-08-16 22:00:00 32.5 11 Sur 18 Sur 0 944.4 0.6 99
2019-08-16 21:00:00 33.9 10 Sudoeste 18 Sudoeste 0 944.1 0 99
2019-08-16 20:00:00 35.9 12 Sudoeste 24 Sudoeste 0 943.8 -0.9 99
2019-08-16 19:00:00 36.7 10 Oeste 25 Sudoeste 0 943.8 -1.4 99
2019-08-16 18:00:00 37 10 Oeste 27 Sudoeste 0 944.1 -1.7 99
2019-08-16 17:00:00 36.6 11 Sudoeste 28 Oeste 0 944.7 -0.9 99
2019-08-16 16:00:00 36.2 9 Sudoeste 27 Oeste 0 945.2 -1.2 99
2019-08-16 15:00:00 35.4 13 Oeste 26 Noroeste 0 945.8 -1 99
2019-08-16 14:00:00 34.1 9 Oeste 24 Oeste 0 945.6 -1.1 99
2019-08-16 13:00:00 32.3 10 Sudoeste 23 Oeste 0 946.4 -0.5 99
2019-08-16 12:00:00 30.1 12 Oeste 19 Oeste 0 946.8 0.1 99
2019-08-16 11:00:00 28.5 5 Oeste 13 Oeste 0 946.7 0.4 99
2019-08-16 10:00:00 27.3 0 Calma 5 Noroeste 0 946.9 0.9 99
2019-08-16 09:00:00 24.6 2 Nordeste 12 Sur 0 946.7 0.8 99
2019-08-16 08:00:00 23.1 0 Calma 13 Sur 0 946.3 0.3 99
2019-08-16 07:00:00 25.9 10 Sur 17 Sur 0 946 0.1 99
2019-08-16 06:00:00 26.2 11 Sur 16 Sudoeste 0 945.9 0.1 99
2019-08-16 05:00:00 26.7 8 Sur 14 Sudoeste 0 946 0.3 99
2019-08-16 04:00:00 26 0 Calma 16 Sur 0 945.9 0.1 99
2019-08-16 03:00:00 26.6 9 Sur 12 Sur 0 945.8 0.2 99
2019-08-16 02:00:00 26.1 0 Calma 5 Oeste 0 945.7 0.2 99
2019-08-16 01:00:00 26.9 7 Sudoeste 10 Sur 0 945.8 1 99
2019-08-16 00:00:00 29.8 0 Calma 17 Sudeste 0 945.6 1 99
2019-08-15 23:00:00 30 6 Sudeste 15 Sur 0 945.5 1.1 99
2019-08-15 22:00:00 32.2 12 Sur 16 Sur 0 944.8 0.5 99
2019-08-15 21:00:00 33.7 8 Sur 21 Sudoeste 0 944.6 -0.1 99
2019-08-15 20:00:00 35.5 10 Sudoeste 24 Sudoeste 0 944.4 -0.7 99
2019-08-15 19:00:00 36.1 11 Sudoeste 26 Sudoeste 0 944.3 -1.3 99
2019-08-15 18:00:00 36.3 12 Sudoeste 21 Sudoeste 0 944.7 -1.3 99
2019-08-15 17:00:00 36 8 Noroeste 22 Oeste 0 945.1 -1.4 99
2019-08-15 16:00:00 35.8 7 Oeste 26 Oeste 0 945.6 -1.2 99
2019-08-15 15:00:00 34.9 8 Sudoeste 24 Sudoeste 0 946 -1.4 99
2019-08-15 14:00:00 33.5 5 Sudoeste 17 Sudoeste 0 946.5 -0.9 99
2019-08-15 13:00:00 31.3 6 Oeste 20 Oeste 0 946.8 -0.3 99
2019-08-15 12:00:00 29 9 Oeste 17 Oeste 0 947.4 0.7 99
2019-08-15 11:00:00 27.4 7 Oeste 14 Oeste 0 947.4 1.1 99
2019-08-15 10:00:00 24.9 0 Calma 5 Norte 0 947.1 1.1 99
2019-08-15 09:00:00 22 0 Calma -- -- 0 946.7 1.1 99
2019-08-15 08:00:00 19.7 0 Calma -- -- 0 946.3 0.8 99
2019-08-15 07:00:00 19.7 0 Calma 0 Calma 0 946 0.3 99
2019-08-15 06:00:00 20.7 0 Calma 4 Norte 0 945.6 -0.2 99
2019-08-15 05:00:00 21.3 0 Calma 10 Nordeste 0 945.5 -0.7 99
2019-08-15 04:00:00 21.7 0 Calma 2 Nordeste 0 945.7 -0.6 99
2019-08-15 03:00:00 23.1 0 Calma 6 Nordeste 0 945.8 -0.5 99
2019-08-15 02:00:00 24.6 0 Calma 5 Nordeste 0 946.2 -0.2 99
2019-08-15 01:00:00 25.2 0 Calma 5 Sudeste 0 946.3 0.5 99
2019-08-15 00:00:00 26.5 0 Calma 11 Sur 0 946.3 1.1 99
2019-08-14 23:00:00 28.8 8 Sur 10 Sur 0 946.4 1.1 99
2019-08-14 22:00:00 30.9 6 Sur 14 Sur 0 945.8 0.4 99
2019-08-14 21:00:00 32.5 6 Sur 16 Sudoeste 0 945.2 -0.5 99
2019-08-14 20:00:00 34.2 11 Oeste 18 Oeste 0 945.3 -0.7 99
2019-08-14 19:00:00 34.7 6 Sur 22 Sudoeste 0 945.4 -1 99
2019-08-14 18:00:00 34.6 8 Sur 20 Sudoeste 0 945.7 -1.4 99
2019-08-14 17:00:00 34.4 8 Sudoeste 21 Sudoeste 0 946 -1.4 99
2019-08-14 16:00:00 33.8 12 Oeste 27 Sudoeste 0 946.4 -1.2 99
2019-08-14 15:00:00 32.8 5 Sudoeste 21 Sudoeste 0 947.1 -0.9 99
2019-08-14 14:00:00 31.3 7 Sudoeste 21 Sudoeste 0 947.4 -- 99
2019-08-14 13:00:00 29.2 8 Oeste 19 Oeste 0 947.6 -0.1 99
2019-08-14 12:00:00 27.3 8 Oeste 20 Oeste 0 948 0.8 99
2019-08-14 11:00:00 -- -- -- -- -- -- -- -- --
2019-08-14 10:00:00 24.4 0 Calma 5 Nordeste 0 947.7 1.2 99
2019-08-14 09:00:00 21.4 0 Calma 2 Sudoeste 0 947.2 0.8 99
2019-08-14 08:00:00 19 0 Calma -- -- 0 946.8 0.6 99
2019-08-14 07:00:00 19.5 0 Calma 0 Calma 0 946.5 0.1 99
2019-08-14 06:00:00 20 0 Calma 0 Calma 0 946.4 0 99
2019-08-14 05:00:00 20.6 0 Calma 3 Nordeste 0 946.2 0.2 99
2019-08-14 04:00:00 21.1 0 Calma 8 Sur 0 946.4 0.4 99
2019-08-14 03:00:00 22.4 0 Calma 7 Sur 0 946.4 0.4 99
2019-08-14 02:00:00 22.9 3 Sur 12 Sur 0 946 -0.1 99
2019-08-14 01:00:00 24 0 Calma 6 Noroeste 0 946 0.5 99
2019-08-14 00:00:00 25.6 0 Calma 9 Sudeste 0 946 1.1 99
2019-08-13 23:00:00 27.1 0 Calma 10 Nordeste 0 946.1 2.3 99
2019-08-13 22:00:00 28.7 6 Nordeste 14 Nordeste 0 945.5 1.6 99
2019-08-13 21:00:00 30.4 10 Nordeste 17 Nordeste 0 944.9 1.3 99
2019-08-13 20:00:00 32 9 Oeste 19 Oeste 0 943.8 -0.7 99
2019-08-13 19:00:00 32.6 11 Sudoeste 26 Sur 0 943.9 -1.4 99
2019-08-13 18:00:00 32.4 10 Oeste 24 Sudoeste 0 943.6 -2.1 99
2019-08-13 17:00:00 32.8 5 Oeste 28 Oeste 0 944.5 -1.6 99
2019-08-13 16:00:00 31.8 8 Sudoeste 30 Sudoeste 0 945.3 -0.8 99
2019-08-13 15:00:00 31.1 3 Noroeste 25 Oeste 0 945.7 -0.4 99
2019-08-13 14:00:00 30.9 8 Sudoeste 23 Sudoeste 0 946.1 0.2 99
2019-08-13 13:00:00 28.8 10 Oeste 24 Noroeste 0 946.1 0.4 99
2019-08-13 12:00:00 27.7 7 Noroeste 13 Oeste 0 946.1 0.7 99
2019-08-13 11:00:00 26.2 3 Oeste 24 Oeste 0 945.9 1.3 99
2019-08-13 10:00:00 24.6 0 Calma 6 Noroeste 0 945.7 1.7 99
2019-08-13 09:00:00 21.9 0 Calma 0 Calma 0 945.4 1.3 99
2019-08-13 08:00:00 19.6 0 Calma 5 Nordeste 0 944.6 0.5 99
2019-08-13 07:00:00 20.4 0 Calma 5 Norte 0 944 -0.2 99
2019-08-13 06:00:00 21.4 0 Calma 6 Sudeste 0 944.1 -0.2 99
2019-08-13 05:00:00 22.2 0 Calma 11 Norte 0 944.1 -0.5 99
2019-08-13 04:00:00 22.6 0 Calma 19 Nordeste 0 944.2 -1 99
2019-08-13 03:00:00 22.5 8 Nordeste 13 Nordeste 0 944.3 -1.1 99
2019-08-13 02:00:00 21.8 0 Calma 5 Sur 0 944.6 -0.5 99
2019-08-13 01:00:00 22.8 0 Calma 5 Este 0 945.2 0.7 99
2019-08-13 00:00:00 23.9 4 Este 10 Este 0 945.4 1.7 99
2019-08-12 23:00:00 25.2 2 Nordeste 16 Nordeste 0 945.1 2.5 99
2019-08-12 22:00:00 26.7 5 Nordeste 25 Norte 0 944.5 2.1 99
2019-08-12 21:00:00 28.5 12 Norte 24 Norte 0 943.7 1 99
2019-08-12 20:00:00 31 13 Norte 23 Norte 0 942.6 -0.3 99
2019-08-12 19:00:00 32.1 12 Norte 21 Norte 0 942.4 -1.4 99
2019-08-12 18:00:00 32.3 6 Noroeste 17 Oeste 0 942.7 -1.9 99
2019-08-12 17:00:00 31.5 2 Norte 19 Noroeste 0 942.9 -2.2 99
2019-08-12 16:00:00 30.3 2 Oeste 20 Norte 0 943.8 -1.7 99
2019-08-12 15:00:00 29.1 6 Nordeste 18 Nordeste 0 944.6 -1 99
2019-08-12 14:00:00 27.2 8 Este 21 Este 0 945.1 -0.2 99
2019-08-12 13:00:00 25.8 4 Sudeste 18 Nordeste 0 945.5 0.8 99
2019-08-12 12:00:00 24.3 8 Este 24 Nordeste 0 945.6 1.4 99
2019-08-12 11:00:00 22.9 9 Nordeste 32 Nordeste 0 945.3 1.6 99
2019-08-12 10:00:00 20 5 Nordeste 14 Nordeste 0 944.7 1.3 99
2019-08-12 09:00:00 17.4 0 Calma -- -- 0 944.2 0.8 99
2019-08-12 08:00:00 16.9 0 Calma 9 Este 0 943.7 0 99
2019-08-12 07:00:00 17.3 0 Calma 0 Calma 0 943.4 -0.7 99
2019-08-12 06:00:00 17.6 0 Calma 0 Calma 0 943.4 -1.5 99
2019-08-12 05:00:00 19.1 0 Calma 4 Este 0 943.7 -1.7 99
2019-08-12 04:00:00 20.2 0 Calma 6 Nordeste 0 944.1 -1.2 99
2019-08-12 03:00:00 21.3 0 Calma 11 Norte 0 944.9 -0.3 99
2019-08-12 02:00:00 24.1 6 Norte 17 Nordeste 0 945.4 0.6 99
2019-08-12 01:00:00 24.7 4 Nordeste 10 Nordeste 0 945.3 1.2 99
2019-08-12 00:00:00 25.4 0 Calma 11 Nordeste 0 945.2 1.7 99
2019-08-11 23:00:00 26.4 3 Nordeste 17 Norte 0 944.8 1.9 99
2019-08-11 22:00:00 27.8 4 Sudoeste 23 Sudoeste 0 944.1 1.3 99
2019-08-11 21:00:00 29.7 13 Sudoeste 23 Sudoeste 0 943.5 0.6 99
2019-08-11 20:00:00 31.1 14 Sudoeste 27 Sudoeste 0 942.9 -0.8 99
2019-08-11 19:00:00 31.6 15 Sudoeste 31 Sudoeste 0 942.8 -1.4 99
2019-08-11 18:00:00 32.1 16 Sudoeste 31 Sudoeste 0 942.9 -1.7 99
2019-08-11 17:00:00 31 16 Sudoeste 56 Sudoeste 0 943.7 -1.4 99
2019-08-11 16:00:00 31.3 17 Sudoeste 32 Oeste 0 944.2 -1 99
2019-08-11 15:00:00 31.4 18 Sudoeste 35 Sudoeste 0 944.6 -0.8 99
2019-08-11 14:00:00 30.3 17 Sudoeste 29 Sudoeste 0 945.1 -0.1 99
2019-08-11 13:00:00 29.8 14 Sudoeste 26 Sudoeste 0 945.2 0.1 99
2019-08-11 12:00:00 27.5 10 Oeste 22 Oeste 0 945.4 0.3 99
2019-08-11 11:00:00 25.3 3 Oeste 13 Oeste 0 945.2 0.3 99
2019-08-11 10:00:00 23.5 4 Oeste 14 Sudoeste 0 945.1 0.9 99
2019-08-11 09:00:00 22.5 5 Sudoeste 15 Sur 0 945.1 1.2 99
2019-08-11 08:00:00 21.7 4 Sur 13 Sudoeste 0 944.9 1 99
2019-08-11 07:00:00 22.4 9 Sudoeste 20 Sur 0 944.2 0.5 99
2019-08-11 06:00:00 23 9 Sudoeste 18 Sudoeste 0 943.9 -0.2 99
2019-08-11 05:00:00 24.2 5 Sudoeste 14 Sudoeste 0 943.9 -0.8 99
2019-08-11 04:00:00 25.8 8 Sudoeste 24 Sudoeste 0 943.7 -1.1 99
2019-08-11 03:00:00 27 18 Sudoeste 28 Sudoeste 0 944.1 -0.7 99
2019-08-11 02:00:00 28.3 14 Sudoeste 20 Sudoeste 0 944.7 0 99
2019-08-11 01:00:00 29.1 12 Sur 18 Sudoeste 0 944.8 0.6 99
2019-08-11 00:00:00 29.5 11 Sur 17 Sur 0 944.8 0.7 99
2019-08-10 23:00:00 30.5 9 Sur 16 Sur 0 944.7 0.9 99
2019-08-10 22:00:00 31.1 10 Sur 13 Sur 0 944.2 0.3 99
2019-08-10 21:00:00 32.8 7 Sudoeste 19 Sudoeste 0 944.1 -0.5 99
2019-08-10 20:00:00 34.2 10 Oeste 26 Oeste 0 943.8 -1.3 99
2019-08-10 19:00:00 34.9 10 Oeste 25 Oeste 0 943.9 -1.9 99
2019-08-10 18:00:00 35.2 13 Oeste 33 Oeste 0 944.6 -1.7 99
2019-08-10 17:00:00 34.9 14 Oeste 32 Oeste 0 945.1 -1.6 99
2019-08-10 16:00:00 34.2 14 Sudoeste 30 Sudoeste 0 945.8 -1.3 99
2019-08-10 15:00:00 33 12 Sudoeste 24 Oeste 0 946.3 -1.2 99
2019-08-10 14:00:00 31.4 7 Oeste 23 Noroeste 0 946.7 -0.5 99
2019-08-10 13:00:00 29.6 8 Oeste 17 Sudoeste 0 947.1 -0.1 99
2019-08-10 12:00:00 27.9 3 Nordeste 12 Oeste 0 947.5 0.5 99
2019-08-10 11:00:00 26.5 3 Nordeste 9 Norte 0 947.2 0.5 99
2019-08-10 10:00:00 25.3 3 Norte 8 Norte 0 947.2 0.9 99
2019-08-10 09:00:00 24.3 0 Calma 0 Calma 0 947 0.9 99
2019-08-10 08:00:00 22.5 0 Calma 8 Sur 0 946.7 0.6 99
2019-08-10 07:00:00 23.6 2 Sur 12 Sur 0 946.3 0.1 99
2019-08-10 06:00:00 24.3 5 Sur 13 Sudoeste 0 946.1 -0.2 99
2019-08-10 05:00:00 24.3 0 Calma 10 Sur 0 946.1 -0.3 99
2019-08-10 04:00:00 25.8 0 Calma 18 Sudoeste 0 946.2 -0.2 99
2019-08-10 03:00:00 26.6 11 Sudoeste 19 Sudoeste 0 946.3 0.2 99
2019-08-10 02:00:00 27.7 12 Sudoeste 19 Sur 0 946.4 0.6 88
2019-08-10 01:00:00 28.6 10 Sudoeste 16 Sudoeste 0 946.4 1.2 57
2019-08-10 00:00:00 29 9 Sur 16 Sur 0 946.1 1.6 55
2019-08-09 23:00:00 29.8 10 Sur 68 Sur 0 945.8 1.4 53
2019-08-09 22:00:00 30.7 10 Sur 25 Sudoeste 0 945.2 0.7 49
2019-08-09 21:00:00 32.3 14 Sudoeste 37 Sudoeste 0 944.5 0.1 46
2019-08-09 20:00:00 33.8 16 Sudoeste 29 Sudoeste 0 944.4 -0.6 44
2019-08-09 19:00:00 34.9 16 Sudoeste 30 Oeste 0 944.5 -0.5 41
2019-08-09 18:00:00 35 18 Sudoeste 32 Sudoeste 0 944.4 -1.5 39
2019-08-09 17:00:00 35 15 Sudoeste 33 Oeste 0 945 -1.1 41
2019-08-09 16:00:00 33.8 17 Sudoeste 29 Sudoeste 0 945 -1.3 47
2019-08-09 15:00:00 33.1 13 Sudoeste 27 Sudoeste 0 945.9 -0.4 50
2019-08-09 14:00:00 31.5 13 Sudoeste 24 Sudoeste 0 946.1 0 50
2019-08-09 13:00:00 29.8 13 Oeste 22 Sudoeste 0 946.3 0.4 52
2019-08-09 12:00:00 28.1 5 Oeste 19 Sudoeste 0 946.3 0.8 54
2019-08-09 11:00:00 26.6 8 Oeste 15 Oeste 0 946.1 0.9 55
2019-08-09 10:00:00 24.9 3 Oeste 13 Sudoeste 0 945.9 0.9 57
2019-08-09 09:00:00 23.7 0 Calma -- -- 0 945.5 1 57
2019-08-09 08:00:00 22.6 6 Sur 13 Sur 0 945.2 0.3 56
2019-08-09 07:00:00 22.7 6 Sur 12 Sur 0 945 0.4 55
2019-08-09 06:00:00 23.5 2 Sudoeste 8 Sur 0 944.5 -0.3 55
2019-08-09 05:00:00 24.1 2 Sur 98 Sudeste 0 944.9 0.6 50
2019-08-09 04:00:00 25.8 11 Sudoeste 26 Sudoeste 0 944.6 0.9 48
2019-08-09 03:00:00 27 16 Sudoeste 30 Sudoeste 0 944.8 1.2 46
2019-08-09 02:00:00 27.7 8 Sur 14 Sur 0 944.3 0.7 41
2019-08-09 01:00:00 28.9 8 Sur 16 Sur 0 943.7 0.8 39
2019-08-09 00:00:00 29.7 13 Sudeste 23 Sur 0 943.6 0.9 38
2019-08-08 23:00:00 30.5 12 Sur 19 Sur 0 943.6 1.1 37
2019-08-08 22:00:00 31.6 12 Sur 39 Sur 0 942.9 0.4 37
2019-08-08 21:00:00 33.4 7 Sudoeste -- -- 0 942.7 0.2 35
2019-08-08 20:00:00 35.3 13 Sudoeste -- -- 0 942.5 -0.2 34
2019-08-08 19:00:00 36.1 50 Sudoeste -- -- 0 942.5 -0.7 32
2019-08-08 18:00:00 36.7 41 Oeste -- -- 0 942.5 -1 35
2019-08-08 17:00:00 36.2 80 Sudoeste -- -- 0 942.7 -0.7 35
2019-08-08 16:00:00 35.6 32 Oeste -- -- 0 943.2 -1.2 38
2019-08-08 15:00:00 34.3 0 Calma -- -- 0 943.5 -1 41
2019-08-08 14:00:00 32.9 0 Calma -- -- 0 943.4 -0.6 44
2019-08-08 13:00:00 31.7 0 Calma -- -- 0 944.4 0.4 45
2019-08-08 12:00:00 30.1 0 Calma -- -- 0 944.5 0.9 46
2019-08-08 11:00:00 28.1 0 Calma -- -- 0 944 0.8 50
2019-08-08 10:00:00 26.4 0 Calma -- -- 0 944 0.8 55
2019-08-08 09:00:00 23.4 0 Calma -- -- 0 943.6 0.3 58
2019-08-08 08:00:00 21 0 Calma -- -- 0 943.2 0.1 57
2019-08-08 07:00:00 22.1 0 Calma -- -- 0 943.2 0 54
2019-08-08 06:00:00 22.6 0 Calma -- -- 0 943.3 0 53
2019-08-08 05:00:00 23.9 0 Calma -- -- 0 943.1 -0.7 50
2019-08-08 04:00:00 24 0 Calma -- -- 0 943.2 -0.9 49
2019-08-08 03:00:00 25.6 0 Calma -- -- 0 943.3 -0.5 48
2019-08-08 02:00:00 25.8 0 Calma -- -- 0 943.8 0.6 47
2019-08-08 01:00:00 27.6 0 Calma -- -- 0 944.1 1.3 45
2019-08-08 00:00:00 27.5 0 Calma -- -- 0 943.8 1.2 45
2019-08-07 23:00:00 28.3 0 Calma -- -- 0 943.2 0.8 44
2019-08-07 22:00:00 29.6 -- -- -- -- 0 942.8 0.2 42
2019-08-07 21:00:00 30.8 120 Sudoeste -- -- 0 942.6 0.1 41
2019-08-07 20:00:00 32.2 100 Sudoeste -- -- 0 942.4 -0.2 39
2019-08-07 19:00:00 32.5 15 Sudoeste -- -- 0 942.6 -0.3 35
2019-08-07 18:00:00 33.2 32 Sudoeste -- -- 0 942.5 -0.8 35
2019-08-07 17:00:00 33.1 65 Sudoeste -- -- 0 942.6 -0.6 35
2019-08-07 16:00:00 33.4 -- -- -- -- 0 942.9 -0.6 38
2019-08-07 15:00:00 32.6 14 Sudoeste -- -- 0 943.3 -0.3 41
2019-08-07 14:00:00 31.8 78 Sudoeste -- -- 0 943.2 -0.3 43
2019-08-07 13:00:00 30.4 10 Sudoeste -- -- 0 943.5 0.4 45
2019-08-07 12:00:00 28.6 44 Oeste -- -- 0 943.6 1.3 45
2019-08-07 11:00:00 26.3 87 Oeste -- -- 0 943.5 1.6 47
2019-08-07 10:00:00 24.9 -- -- -- -- 0 943.1 1.3 47
2019-08-07 09:00:00 22.6 0 Calma -- -- 0 942.3 0.8 47
2019-08-07 08:00:00 21.2 31 Este -- -- 0 941.9 0.3 46
2019-08-07 07:00:00 22.8 -- -- -- -- 0 941.8 0.2 43
2019-08-07 06:00:00 23.9 -- -- -- -- 0 941.5 0.1 42
2019-08-07 05:00:00 24.4 84 Sudoeste -- -- 0 941.6 -0.5 42
2019-08-07 04:00:00 25.2 -- -- -- -- 0 941.6 -0.7 41
2019-08-07 03:00:00 27.7 -- -- -- -- 0 941.4 -0.4 40
2019-08-07 02:00:00 28.5 -- -- -- -- 0 942.1 0.6 36
2019-08-07 01:00:00 29.1 -- -- -- -- 0 942.3 1.3 34
2019-08-07 00:00:00 29.4 -- -- -- -- 0 941.8 1.2 33
2019-08-06 23:00:00 31.1 -- -- -- -- 0 941.5 1.1 33
2019-08-06 22:00:00 32.1 -- -- -- -- 0 941 0.4 33
2019-08-06 21:00:00 33.3 124 Sudoeste -- -- 0 940.6 -0.1 32
2019-08-06 20:00:00 35.7 13 Oeste -- -- 0 940.4 -0.8 32
2019-08-06 19:00:00 36.1 27 Oeste -- -- 0 940.6 -1.4 31
2019-08-06 18:00:00 37.3 15 Oeste -- -- 0 940.7 -1.8 32
2019-08-06 17:00:00 37 47 Sudoeste -- -- 0 941.2 -2.1 34
2019-08-06 16:00:00 35.8 43 Oeste -- -- 0 942 -1.6 35
2019-08-06 15:00:00 35 15 Oeste 28 Oeste 0 942.5 -1.3 35
2019-08-06 14:00:00 33.8 8 Oeste 24 Sudoeste 0 943.3 -0.5 38
2019-08-06 13:00:00 32 7 Oeste 17 Oeste 0 943.6 -0.3 43
2019-08-06 12:00:00 29.7 4 Oeste 14 Oeste 0 943.8 0.3 45
2019-08-06 11:00:00 27.4 6 Norte 12 Noroeste 0 943.8 0.5 47
2019-08-06 10:00:00 26 0 Calma 6 Norte 0 943.9 0.6 49
2019-08-06 09:00:00 24.3 0 Calma 4 Norte 0 943.5 0.2 51
2019-08-06 08:00:00 21.8 0 Calma 7 Sudeste 0 943.3 0 50
2019-08-06 07:00:00 24 4 Sur 13 Sur 0 943.3 -0.1 47
2019-08-06 06:00:00 25 8 Sur 19 Sudeste 0 943.3 0 46
2019-08-06 05:00:00 25.1 7 Sur 11 Sur 0 943.3 -0.3 46
2019-08-06 04:00:00 25.7 0 Calma 18 Sudoeste 0 943.4 0 44
2019-08-06 03:00:00 27 14 Sudoeste 20 Sudoeste 0 943.3 0.3 42
2019-08-06 02:00:00 28.5 14 Sudoeste 26 Sudoeste 0 943.6 1.2 39
2019-08-06 01:00:00 29.7 12 Sur 16 Sur 0 943.4 1.5 39
2019-08-06 00:00:00 30.7 11 Sur 19 Sur 0 943 1.4 39
2019-08-05 23:00:00 31.9 13 Sur 20 Sur 0 942.4 1.4 38
2019-08-05 22:00:00 32.6 12 Sur 17 Sur 0 941.9 1.2 37
2019-08-05 21:00:00 34.5 11 Sudoeste 26 Sudoeste 0 941.6 0.7 34
2019-08-05 20:00:00 36.2 16 Oeste 28 Oeste 0 941 -0.4 34
2019-08-05 19:00:00 37.4 11 Oeste 33 Noroeste 0 940.7 -1.4 35
2019-08-05 18:00:00 38.1 8 Oeste 28 Oeste 0 940.9 -1.5 35
2019-08-05 17:00:00 37.5 9 Oeste 26 Sudoeste 0 941.4 -2 35
2019-08-05 16:00:00 36.5 13 Oeste 24 Oeste 0 942.1 -1.9 37
2019-08-05 15:00:00 35.5 9 Oeste 28 Oeste 0 942.4 -1.9 38
2019-08-05 14:00:00 34.5 10 Oeste -- -- 0 943.4 -0.7 39
2019-08-05 13:00:00 32.5 10 Oeste -- -- 0 944 -0.2 42
2019-08-05 12:00:00 29.9 6 Oeste 16 Oeste 0 944.3 0.3 49
2019-08-05 11:00:00 28.7 0 Calma 7 Oeste 0 944.1 0.6 51
2019-08-05 10:00:00 25.9 3 Norte 6 Norte 0 944.2 0.4 53
2019-08-05 09:00:00 23.9 0 Calma -- -- 0 944 0.3 54
2019-08-05 08:00:00 20.6 0 Calma 4 Norte 0 943.5 -0.3 53
2019-08-05 07:00:00 21.3 0 Calma 5 Nordeste 0 943.8 -0.2 50
2019-08-05 06:00:00 22.9 0 Calma 8 Sur 0 943.7 -0.6 47
2019-08-05 05:00:00 24.8 6 Sur 9 Sudeste 0 943.8 -0.7 45
2019-08-05 04:00:00 26.5 5 Sur 10 Sur 0 944 -0.5 42
2019-08-05 03:00:00 26.5 0 Calma 7 Sur 0 944.3 0.2 41
2019-08-05 02:00:00 27.9 0 Calma 19 Sur 0 944.5 1 40
2019-08-05 01:00:00 30 12 Sur 19 Sur 0 944.5 2.3 39
2019-08-05 00:00:00 30.7 11 Sur 19 Sur 0 944.1 1.6 38
2019-08-04 23:00:00 31.2 11 Sur 18 Sur 0 943.5 1.6 37
2019-08-04 22:00:00 32.2 10 Sur 20 Sudoeste 0 942.2 0.4 36
2019-08-04 21:00:00 33.9 15 Sudoeste 28 Sudoeste 0 942.5 0.7 35
2019-08-04 20:00:00 35.5 17 Sudoeste 25 Oeste 0 941.9 -0.3 35
2019-08-04 19:00:00 36.4 15 Sudoeste 29 Sudoeste 0 941.8 -0.9 36
2019-08-04 18:00:00 36.5 14 Sudoeste 30 Oeste 0 941.8 -1.4 35
2019-08-04 17:00:00 36.7 6 Sudoeste 24 Oeste 0 942.2 -1.6 35
2019-08-04 16:00:00 36.1 5 Oeste 23 Sudoeste 0 942.7 -1.6 37
2019-08-04 15:00:00 35.1 7 Oeste 17 Sudoeste 0 943.2 -1.6 38
2019-08-04 14:00:00 33.1 5 Oeste 18 Noroeste 0 943.8 -0.9 40
2019-08-04 13:00:00 31.4 5 Oeste 28 Sudoeste 0 944.3 -0.5 43
2019-08-04 12:00:00 29.4 8 Sudoeste 17 Oeste 0 944.8 0.3 44
2019-08-04 11:00:00 27.3 11 Oeste -- -- 0 944.7 0.5 46
2019-08-04 10:00:00 26.1 2 Noroeste 13 Sudoeste 0 944.8 0.9 49
2019-08-04 09:00:00 24.1 0 Calma 7 Norte 0 944.5 0.6 50
2019-08-04 08:00:00 23.5 2 Sur 15 Sur 0 944.2 0.3 47
2019-08-04 07:00:00 23.9 6 Sur 14 Sur 0 943.9 0 47
2019-08-04 06:00:00 24.2 7 Sur 11 Sudoeste 0 943.9 0.1 48
2019-08-04 05:00:00 24.7 8 Sudoeste 14 Sudoeste 0 943.9 0.2 47
2019-08-04 04:00:00 26.4 10 Sur 17 Sur 0 943.9 0.3 44
2019-08-04 03:00:00 26.5 10 Sudoeste 16 Sur 0 943.8 0.7 41
2019-08-04 02:00:00 27.8 10 Sur 23 Sudoeste 0 943.7 1 40
2019-08-04 01:00:00 29.1 12 Sur -- -- 0 943.6 1.9 39
2019-08-04 00:00:00 30.1 15 Sur 24 Sur 0 943.1 1.9 39
2019-08-03 23:00:00 31.1 13 Sur -- -- 0 942.7 1.6 38
2019-08-03 22:00:00 31.8 12 Sur 17 Sur 0 941.7 0.6 38
2019-08-03 21:00:00 33.6 12 Sudoeste 25 Oeste 0 941.2 -0.1 36
2019-08-03 20:00:00 35.6 14 Sudoeste 26 Oeste 0 941.1 -0.7 35
2019-08-03 19:00:00 36.7 13 Oeste 28 Oeste 0 941.1 -1.2 35
2019-08-03 18:00:00 37 12 Oeste 29 Sudoeste 0 941.3 -1.6 35
2019-08-03 17:00:00 36.8 15 Oeste 29 Oeste 0 941.8 -1.7 35
2019-08-03 16:00:00 36 13 Oeste 27 Sudoeste 0 942.3 -1.6 37
2019-08-03 15:00:00 35.1 9 Sudoeste 20 Oeste 0 942.9 -1.3 38
2019-08-03 14:00:00 33.6 4 Norte 13 Oeste 0 943.5 -0.9 38
2019-08-03 13:00:00 32.2 5 Oeste 15 Sudoeste 0 943.9 -0.6 39
2019-08-03 12:00:00 29.8 5 Noroeste 15 Oeste 0 944.2 0.4 41
2019-08-03 11:00:00 27.8 6 Oeste 15 Oeste 0 944.4 0.9 44
2019-08-03 10:00:00 26.1 6 Oeste 14 Oeste 0 944.5 1.3 45
2019-08-03 09:00:00 24.8 0 Calma 6 Sur 0 943.8 0.9 48
2019-08-03 08:00:00 22 0 Calma 10 Sur 0 943.5 0.5 47
2019-08-03 07:00:00 22.1 0 Calma -- -- 0 943.2 0.1 44
2019-08-03 06:00:00 23.5 0 Calma 0 Calma 0 942.9 -0.4 42
2019-08-03 05:00:00 24.3 0 Calma 9 Sur 0 943 -0.5 40
2019-08-03 04:00:00 26.7 0 Calma 15 Sudoeste 0 943.1 -0.5 38
2019-08-03 03:00:00 26.9 16 Sur -- -- 0 943.3 -0.1 37
2019-08-03 02:00:00 28.2 0 Calma 15 Sur 0 943.5 0.6 35
2019-08-03 01:00:00 29.3 0 Calma 29 Sur 0 943.6 1.2 32
2019-08-03 00:00:00 30.9 12 Sur 23 Sur 0 943.4 1.6 31
2019-08-02 23:00:00 31.7 12 Sur 22 Sur 0 942.9 1.3 30
2019-08-02 22:00:00 32.7 13 Sur 19 Sudoeste 0 942.4 0.7 29
2019-08-02 21:00:00 34.5 12 Sudoeste 20 Sudoeste 0 941.8 -0.2 28
2019-08-02 20:00:00 36.2 14 Oeste 25 Oeste 0 941.6 -0.7 29
2019-08-02 19:00:00 37.1 13 Oeste 37 Oeste 0 941.7 -1 29
2019-08-02 18:00:00 37.1 17 Oeste 30 Oeste 0 942 -1.1 29
2019-08-02 17:00:00 36.8 7 Oeste 30 Oeste 0 942.3 -1.2 31
2019-08-02 16:00:00 36.2 12 Oeste 23 Oeste 0 942.7 -1.1 34
2019-08-02 15:00:00 34.9 5 Noroeste 17 Oeste 0 943.1 -0.9 38
2019-08-02 14:00:00 33.5 5 Noroeste 49 Oeste 0 943.5 -0.4 44
2019-08-02 13:00:00 31.7 6 Noroeste -- -- 0 943.8 -0.3 49
2019-08-02 12:00:00 29.5 5 Oeste 31 Sudoeste 0 944 0.4 53
2019-08-02 11:00:00 27.8 3 Noroeste 8 Noroeste 0 943.9 0.9 58
2019-08-02 10:00:00 26.2 0 Calma 6 Noroeste 0 944.1 1.1 61
2019-08-02 09:00:00 24.2 0 Calma -- -- 0 943.6 0.8 64
2019-08-02 08:00:00 21.7 0 Calma 8 Sur 0 943 0 64
2019-08-02 07:00:00 22.9 5 Sudeste 8 Sur 0 943 0.2 62
2019-08-02 06:00:00 22.9 0 Calma 7 Sur 0 942.8 -0.1 59
2019-08-02 05:00:00 25.4 2 Sur 8 Sudoeste 0 943 0.1 54
2019-08-02 04:00:00 26 5 Sur 10 Sudoeste 0 942.8 -0.3 52
2019-08-02 03:00:00 26.1 0 Calma 9 Sur 0 942.9 0 51
2019-08-02 02:00:00 28.2 4 Sur 19 Sur 0 942.9 0.6 49
2019-08-02 01:00:00 29.2 12 Sur 18 Sur 0 943.1 2.2 48
2019-08-02 00:00:00 29.8 10 Sur 15 Sur 0 942.9 2 47
2019-08-01 23:00:00 30.3 10 Sur 18 Sur 0 942.3 1.8 46
2019-08-01 22:00:00 31.2 10 Sur 19 Sudoeste 0 940.9 0.9 44
2019-08-01 21:00:00 32.6 13 Sudoeste 66 Sudoeste 0 940.9 0.4 43
2019-08-01 20:00:00 34.2 16 Sudoeste 28 Sudoeste 0 940.5 -0.4 41
2019-08-01 19:00:00 35 12 Oeste 26 Oeste 0 940 -1.5 41
2019-08-01 18:00:00 35.3 12 Oeste 24 Sudoeste 0 940.5 -1.4 43
2019-08-01 17:00:00 34.8 9 Oeste 23 Sudoeste 0 940.9 -1.4 44
2019-08-01 16:00:00 33.4 13 Sudoeste 22 Sudoeste 0 941.5 -1 48
2019-08-01 15:00:00 32 7 Sur 20 Oeste 0 941.9 -0.7 50
2019-08-01 14:00:00 30.1 8 Oeste 17 Oeste 0 942.3 -0.3 56
2019-08-01 13:00:00 28.9 5 Oeste 19 Sudoeste 0 942.5 0.1 63
2019-08-01 12:00:00 26.7 10 Oeste 20 Oeste 0 942.6 0.6 68
2019-08-01 11:00:00 25.6 9 Oeste 20 Sudoeste 0 942.6 0.7 72
2019-08-01 10:00:00 24.4 9 Oeste 19 Sudoeste 0 942.4 0.4 75
2019-08-01 09:00:00 23.8 6 Sudoeste 14 Sudoeste 0 942 0.2 74
2019-08-01 08:00:00 22.7 0 Calma 10 Sudoeste 0 941.9 0.4 68
2019-08-01 07:00:00 23.3 7 Sudoeste 22 Sur 0 942 0.6 66
2019-08-01 06:00:00 23.9 13 Sur 19 Sur 0 941.8 0.5 59
2019-08-01 05:00:00 23.7 6 Sur 14 Sur 0 941.5 0 55
2019-08-01 04:00:00 24.2 8 Sur 15 Sur 0 941.4 0 54
2019-08-01 03:00:00 24.8 6 Sudoeste 10 Sudoeste 0 941.3 0.2 53
2019-08-01 02:00:00 26 0 Calma 11 Sudoeste 0 941.5 0.6 52
2019-08-01 01:00:00 26.8 8 Sur 13 Sudeste 0 941.4 1.3 50
2019-08-01 00:00:00 28.5 5 Este 17 Nordeste 0 941.1 1.7 48
2019-07-31 23:00:00 28.7 5 Norte 18 Norte 0 940.9 2 48
2019-07-31 22:00:00 31.5 5 Sudeste 23 Sudeste 0 940.1 1 45
2019-07-31 21:00:00 32.5 14 Este 27 Este 0 939.4 -0.1 45
2019-07-31 20:00:00 35 9 Este 24 Nordeste 0 938.9 -0.9 43
2019-07-31 19:00:00 34.8 18 Nordeste 27 Nordeste 0 939.1 -1.8 44
2019-07-31 18:00:00 35.5 16 Nordeste 29 Nordeste 0 939.5 -1.8 41
2019-07-31 17:00:00 35.4 3 Nordeste 24 Nordeste 0 939.8 -2.1 41
2019-07-31 16:00:00 35 10 Nordeste 25 Nordeste 0 940.9 -1.4 42
2019-07-31 15:00:00 33.9 6 Oeste 18 Oeste 0 941.3 -1.3 44
2019-07-31 14:00:00 32.4 7 Noroeste 15 Noroeste 0 941.9 -0.7 47
2019-07-31 13:00:00 30.8 6 Noroeste 17 Sudoeste 0 942.3 -0.2 50
2019-07-31 12:00:00 28.7 6 Oeste 13 Sudoeste 0 942.6 0.7 55
2019-07-31 11:00:00 26.6 3 Oeste 10 Noroeste 0 942.6 1.4 59
2019-07-31 10:00:00 26.1 3 Sudoeste 8 Sudoeste 0 942.5 1.9 59
2019-07-31 09:00:00 24.2 3 Sudoeste 8 Sudoeste 0 941.9 1 62
2019-07-31 08:00:00 22.9 0 Calma 8 Sur 0 941.2 -0.6 62
2019-07-31 07:00:00 23.3 0 Calma 17 Nordeste 0 940.6 -1 63
2019-07-31 06:00:00 24.1 6 Nordeste 17 Nordeste 0 940.9 -0.8 59
2019-07-31 05:00:00 23.2 4 Sudeste 9 Sudeste 0 941.8 0.4 49
2019-07-31 04:00:00 23.3 0 Calma -- -- 0 941.6 0 47
2019-07-31 03:00:00 24.5 0 Calma 6 Sur 0 941.7 -0.1 46
2019-07-31 02:00:00 25.7 2 Norte 7 Norte 0 941.4 -0.1 44
2019-07-31 01:00:00 26.3 0 Calma 6 Este 0 941.6 0.5 41
2019-07-31 00:00:00 27.2 0 Calma 9 Nordeste 0 941.8 1.4 38
2019-07-30 23:00:00 29.8 4 Nordeste 12 Este 0 941.5 1.4 35
2019-07-30 22:00:00 31.8 5 Noroeste 17 Norte 0 941.1 1 33
2019-07-30 21:00:00 34.2 6 Sudoeste 14 Oeste 0 940.4 -0.1 32
2019-07-30 20:00:00 35.5 8 Sudoeste 21 Oeste 0 940.1 -1 30
2019-07-30 19:00:00 36.2 5 Oeste 23 Oeste 0 940.1 -1.3 29
2019-07-30 18:00:00 36 10 Oeste 32 Oeste 0 940.5 -1.4 29
2019-07-30 17:00:00 35.7 12 Sudoeste 28 Oeste 0 941.1 -1.4 30
2019-07-30 16:00:00 34.8 12 Oeste 35 Oeste 0 941.4 -1.4 34
2019-07-30 15:00:00 33.3 8 Oeste 27 Oeste 0 941.9 -1.2 37
2019-07-30 14:00:00 32.5 7 Oeste 23 Noroeste 0 942.5 -0.7 39
2019-07-30 13:00:00 31.2 0 Calma 52 Noroeste 0 942.8 -0.5 41
2019-07-30 12:00:00 29.2 5 Norte 15 Norte 0 943.1 0.3 44
2019-07-30 11:00:00 26.7 9 Nordeste 18 Nordeste 0 943.2 1.2 46
2019-07-30 10:00:00 24 13 Nordeste 18 Nordeste 0 943.3 1.4 50
2019-07-30 09:00:00 21.4 6 Nordeste 21 Nordeste 0 942.8 1 55
2019-07-30 08:00:00 19.3 0 Calma 17 Nordeste 0 942 0.1 55
2019-07-30 07:00:00 19 0 Calma 8 Noroeste 0 941.9 0.1 51
2019-07-30 06:00:00 20.5 2 Nordeste 10 Nordeste 0 941.8 0.1 49
2019-07-30 05:00:00 21.6 0 Calma 7 Sudeste 0 941.9 -0.2 47
2019-07-30 04:00:00 22.3 0 Calma 6 Este 0 941.8 -0.6 45
2019-07-30 03:00:00 23.2 0 Calma 6 Este 0 941.7 -0.4 44
2019-07-30 02:00:00 24.6 0 Calma 9 Este 0 942.1 0.7 42
2019-07-30 01:00:00 26.5 5 Nordeste 11 Este 0 942.4 1.8 41
2019-07-30 00:00:00 26.7 2 Nordeste 16 Noroeste 0 942.1 2 41
2019-07-29 23:00:00 29 10 Sur 15 Sur 0 941.4 1.6 43
2019-07-29 22:00:00 29.9 10 Sur 20 Sudoeste 0 940.6 0.9 42
2019-07-29 21:00:00 31.4 12 Sudoeste 22 Sudoeste 0 940.1 0 40
2019-07-29 20:00:00 32.6 14 Sudoeste 26 Sudoeste 0 939.8 -0.5 38
2019-07-29 19:00:00 33.2 12 Sudoeste 26 Sudoeste 0 939.7 -1.1 38
2019-07-29 18:00:00 32.9 8 Sudoeste 27 Sudoeste 0 940.1 -0.9 40
2019-07-29 17:00:00 32.9 9 Oeste 26 Sudoeste 0 940.3 -1 41
2019-07-29 16:00:00 32.4 10 Oeste 24 Sudoeste 0 940.8 -0.9 43
2019-07-29 15:00:00 31.5 9 Sudoeste 23 Oeste 0 941 -0.8 47
2019-07-29 14:00:00 29.9 8 Oeste 22 Oeste 0 941.3 -0.2 50
2019-07-29 13:00:00 27.9 8 Oeste 21 Oeste 0 941.7 0.4 56
2019-07-29 12:00:00 26.5 10 Oeste 20 Sudoeste 0 941.8 0.5 62
2019-07-29 11:00:00 24.5 10 Oeste 17 Oeste 0 941.5 0.6 67
2019-07-29 10:00:00 22.9 10 Oeste 17 Oeste 0 941.3 1.2 72
2019-07-29 09:00:00 21.5 11 Sudoeste 16 Sudoeste 0 941.3 1.3 75
2019-07-29 08:00:00 20.7 6 Sur 15 Sur 0 940.9 0.9 75
2019-07-29 07:00:00 21.3 8 Sur 14 Sur 0 940.1 0.2 73
2019-07-29 06:00:00 21.7 10 Sudoeste 18 Sur 0 940 -0.1 71
2019-07-29 05:00:00 22.8 7 Sudoeste 20 Sudoeste 0 940 0.2 64
2019-07-29 04:00:00 23.6 14 Sudoeste 22 Sudoeste 0 939.9 0 58
2019-07-29 03:00:00 24.8 11 Sudoeste 26 Sudoeste 0 940.1 0.1 50
2019-07-29 02:00:00 25.8 12 Sur 22 Sur 0 939.8 0.3 47
2019-07-29 01:00:00 26.1 11 Sur 19 Sur 0 939.9 1.3 45
2019-07-29 00:00:00 26.9 8 Sur 15 Sudoeste 0 940 1.6 44
2019-07-28 23:00:00 27.6 10 Sur 17 Sur 0 939.5 1.6 44
2019-07-28 22:00:00 28.6 9 Sudoeste 16 Sudoeste 0 938.6 1 44
2019-07-28 21:00:00 30.5 9 Sudoeste 18 Sudoeste 0 938.4 0.8 40
2019-07-28 20:00:00 31.7 12 Sudoeste 29 Sudoeste 0 937.9 -0.2 38
2019-07-28 19:00:00 32.2 8 Oeste 26 Oeste 0 937.6 -1 38
2019-07-28 18:00:00 32.1 13 Sudoeste 29 Oeste 0 937.6 -1.2 40
2019-07-28 17:00:00 31.6 11 Oeste 26 Oeste 0 938.1 -1.1 41
2019-07-28 16:00:00 30.4 10 Noroeste 25 Sudoeste 0 938.6 -1 46
2019-07-28 15:00:00 29.8 9 Oeste 28 Sudoeste 0 938.8 -1.1 49
2019-07-28 14:00:00 28.5 11 Oeste 23 Oeste 0 939.2 -1 55
2019-07-28 13:00:00 26.9 2 Sudeste 15 Noroeste 0 939.6 -0.7 60
2019-07-28 12:00:00 25.3 5 Noroeste 16 Norte 0 939.9 -0.2 66
2019-07-28 11:00:00 23.9 5 Norte 11 Norte 0 940.2 0.3 74
2019-07-28 10:00:00 22.9 3 Norte 7 Norte 0 940.3 1.4 81
2019-07-28 09:00:00 21.4 4 Sudoeste 10 Sudoeste 0 940.1 0.8 85
2019-07-28 08:00:00 20.4 2 Sur 9 Sur 0 939.9 0.6 89
2019-07-28 07:00:00 20.3 5 Sur 8 Sur 0 938.9 -0.6 89
2019-07-28 06:00:00 20.5 0 Calma 14 Sudoeste 0 939.3 -0.5 89
2019-07-28 05:00:00 20.6 5 Sudoeste 15 Sudoeste 0 939.3 -0.6 89
2019-07-28 04:00:00 20.9 11 Sudoeste 21 Sudoeste 0 939.5 -0.6 87
2019-07-28 03:00:00 21.4 12 Sudoeste 23 Sudoeste 0 939.8 -0.3 82
2019-07-28 02:00:00 22 9 Sur 14 Sur 0 939.9 0.4 74
2019-07-28 01:00:00 22.2 8 Sudoeste 12 Sudoeste 0 940.1 0.9 68
2019-07-28 00:00:00 22.9 5 Sudoeste 11 Sur 0 940.1 1.5 64
2019-07-27 23:00:00 23.6 5 Sudoeste 19 Oeste 0 939.5 1.6 62
2019-07-26 12:00:00 25.8 12 Oeste 22 Oeste 0 942.7 0.1 59
2019-07-26 11:00:00 25.2 11 Oeste 19 Oeste 0 942.7 0.1 61
2019-07-26 10:00:00 23.8 10 Oeste 17 Oeste 0 942.7 0.3 63
2019-07-26 09:00:00 22.5 9 Sudoeste 15 Sudoeste 0 942.6 0.3 64
2019-07-26 08:00:00 22.9 8 Sudoeste 19 Sudoeste 0 942.6 0.3 59
2019-07-26 07:00:00 23.7 10 Sudoeste 19 Sudoeste 0 942.4 -0.2 59
2019-07-26 06:00:00 24.5 11 Sur 27 Sur 0 942.3 -0.7 56
2019-07-26 05:00:00 24.9 10 Sudoeste 16 Sudoeste 0 942.3 -1.1 49
2019-07-26 04:00:00 25.7 11 Sur 18 Sur 0 942.6 -0.8 49
2019-07-26 03:00:00 26.3 13 Sur 24 Sudoeste 0 943 -0.1 50
2019-07-26 02:00:00 27.2 12 Sudoeste 32 Sudoeste 0 943.4 0.8 50
2019-07-26 01:00:00 28.5 18 Sudoeste 33 Sudoeste 0 943.4 1.5 47
2019-07-26 00:00:00 29.9 19 Sudoeste 33 Sudoeste 0 943.1 1.7 44